sensor_id;sensor_type;location;lat;lon;timestamp;pressure;altitude;pressure_sealevel;temperature;humidity
53908;BME280;40469;47.998;7.794;2023-02-19T00:01:16;99729.13;;;10.72;100.00
53908;BME280;40469;47.998;7.794;2023-02-19T00:03:42;99723.03;;;10.68;100.00
53908;BME280;40469;47.998;7.794;2023-02-19T00:06:11;99722.16;;;10.75;100.00
53908;BME280;40469;47.998;7.794;2023-02-19T00:08:37;99722.13;;;10.69;100.00
53908;BME280;40469;47.998;7.794;2023-02-19T00:13:28;99716.03;;;10.61;100.00
53908;BME280;40469;47.998;7.794;2023-02-19T00:15:53;99719.53;;;10.65;100.00
53908;BME280;40469;47.998;7.794;2023-02-19T00:18:20;99718.66;;;10.67;100.00
53908;BME280;40469;47.998;7.794;2023-02-19T00:20:45;99709.94;;;10.62;100.00
53908;BME280;40469;47.998;7.794;2023-02-19T00:23:10;99709.94;;;10.59;100.00
53908;BME280;40469;47.998;7.794;2023-02-19T00:25:36;99715.16;;;10.60;100.00
53908;BME280;40469;47.998;7.794;2023-02-19T00:28:02;99705.56;;;10.46;100.00
53908;BME280;40469;47.998;7.794;2023-02-19T00:30:27;99715.13;;;10.48;100.00
53908;BME280;40469;47.998;7.794;2023-02-19T00:32:52;99722.06;;;10.44;100.00
53908;BME280;40469;47.998;7.794;2023-02-19T00:35:19;99722.91;;;10.37;100.00
53908;BME280;40469;47.998;7.794;2023-02-19T00:37:44;99727.31;;;10.40;100.00
53908;BME280;40469;47.998;7.794;2023-02-19T00:40:09;99714.25;;;10.40;100.00
53908;BME280;40469;47.998;7.794;2023-02-19T00:42:35;99715.09;;;10.31;100.00
53908;BME280;40469;47.998;7.794;2023-02-19T00:45:00;99716.81;;;10.31;100.00
53908;BME280;40469;47.998;7.794;2023-02-19T00:47:25;99715.97;;;10.35;100.00
53908;BME280;40469;47.998;7.794;2023-02-19T00:49:50;99712.47;;;10.37;100.00
53908;BME280;40469;47.998;7.794;2023-02-19T00:52:16;99709.00;;;10.37;100.00
53908;BME280;40469;47.998;7.794;2023-02-19T00:54:41;99703.75;;;10.29;100.00
53908;BME280;40469;47.998;7.794;2023-02-19T00:57:06;99708.06;;;10.24;100.00
53908;BME280;40469;47.998;7.794;2023-02-19T00:59:31;99694.16;;;10.22;100.00
53908;BME280;40469;47.998;7.794;2023-02-19T01:01:57;99701.13;;;10.26;100.00
53908;BME280;40469;47.998;7.794;2023-02-19T01:04:22;99694.13;;;10.23;100.00
53908;BME280;40469;47.998;7.794;2023-02-19T01:06:47;99704.56;;;10.17;100.00
53908;BME280;40469;47.998;7.794;2023-02-19T01:09:13;99688.94;;;10.22;100.00
53908;BME280;40469;47.998;7.794;2023-02-19T01:11:38;99703.72;;;10.23;100.00
53908;BME280;40469;47.998;7.794;2023-02-19T01:14:03;99699.31;;;10.14;100.00
53908;BME280;40469;47.998;7.794;2023-02-19T01:16:29;99708.91;;;10.20;100.00
53908;BME280;40469;47.998;7.794;2023-02-19T01:18:55;99704.56;;;10.17;100.00
53908;BME280;40469;47.998;7.794;2023-02-19T01:21:21;99701.09;;;10.15;100.00
53908;BME280;40469;47.998;7.794;2023-02-19T01:23:47;99701.94;;;10.10;100.00
53908;BME280;40469;47.998;7.794;2023-02-19T01:26:14;99712.34;;;10.13;100.00
53908;BME280;40469;47.998;7.794;2023-02-19T01:28:40;99689.78;;;10.15;100.00
53908;BME280;40469;47.998;7.794;2023-02-19T01:31:07;99692.34;;;10.09;100.00
53908;BME280;40469;47.998;7.794;2023-02-19T01:33:32;99681.94;;;10.16;100.00
53908;BME280;40469;47.998;7.794;2023-02-19T01:35:58;99687.16;;;10.16;100.00
53908;BME280;40469;47.998;7.794;2023-02-19T01:38:23;99682.84;;;10.18;100.00
53908;BME280;40469;47.998;7.794;2023-02-19T01:40:53;99679.31;;;10.16;100.00
53908;BME280;40469;47.998;7.794;2023-02-19T01:43:18;99681.97;;;10.25;100.00
53908;BME280;40469;47.998;7.794;2023-02-19T01:45:44;99669.78;;;10.23;100.00
53908;BME280;40469;47.998;7.794;2023-02-19T01:50:48;99674.13;;;10.19;100.00
53908;BME280;40469;47.998;7.794;2023-02-19T01:53:15;99694.16;;;10.20;100.00
53908;BME280;40469;47.998;7.794;2023-02-19T01:55:43;99700.19;;;10.16;100.00
53908;BME280;40469;47.998;7.794;2023-02-19T01:58:10;99703.69;;;10.14;100.00
53908;BME280;40469;47.998;7.794;2023-02-19T02:00:36;99691.50;;;10.10;100.00
53908;BME280;40469;47.998;7.794;2023-02-19T02:03:01;99688.88;;;10.08;100.00
53908;BME280;40469;47.998;7.794;2023-02-19T02:06:01;99686.25;;;10.03;100.00
53908;BME280;40469;47.998;7.794;2023-02-19T02:08:19;99692.31;;;9.98;100.00
53908;BME280;40469;47.998;7.794;2023-02-19T02:11:03;99696.66;;;9.94;100.00
53908;BME280;40469;47.998;7.794;2023-02-19T02:13:29;99708.84;;;10.03;100.00
53908;BME280;40469;47.998;7.794;2023-02-19T02:18:53;99704.50;;;10.05;100.00
53908;BME280;40469;47.998;7.794;2023-02-19T02:24:00;99719.25;;;9.94;100.00
53908;BME280;40469;47.998;7.794;2023-02-19T02:26:42;99703.53;;;9.81;100.00
53908;BME280;40469;47.998;7.794;2023-02-19T02:34:23;99705.31;;;9.87;100.00
53908;BME280;40469;47.998;7.794;2023-02-19T02:36:52;99711.41;;;9.91;100.00
53908;BME280;40469;47.998;7.794;2023-02-19T02:39:19;99708.81;;;9.92;100.00
53908;BME280;40469;47.998;7.794;2023-02-19T02:41:49;99721.81;;;9.81;100.00
53908;BME280;40469;47.998;7.794;2023-02-19T02:44:35;99719.16;;;9.75;100.00
53908;BME280;40469;47.998;7.794;2023-02-19T02:47:01;99721.75;;;9.71;100.00
53908;BME280;40469;47.998;7.794;2023-02-19T02:49:28;99722.63;;;9.73;100.00
53908;BME280;40469;47.998;7.794;2023-02-19T02:51:53;99721.72;;;9.72;100.00
53908;BME280;40469;47.998;7.794;2023-02-19T02:54:25;99728.63;;;9.62;100.00
53908;BME280;40469;47.998;7.794;2023-02-19T02:57:10;99723.47;;;9.70;100.00
53908;BME280;40469;47.998;7.794;2023-02-19T02:59:38;99709.53;;;9.65;100.00
53908;BME280;40469;47.998;7.794;2023-02-19T03:02:06;99697.31;;;9.59;100.00
53908;BME280;40469;47.998;7.794;2023-02-19T03:07:28;99686.88;;;9.58;100.00
53908;BME280;40469;47.998;7.794;2023-02-19T03:09:57;99705.16;;;9.62;100.00
53908;BME280;40469;47.998;7.794;2023-02-19T03:12:23;99693.81;;;9.53;100.00
53908;BME280;40469;47.998;7.794;2023-02-19T03:15:09;99686.00;;;9.54;100.00
53908;BME280;40469;47.998;7.794;2023-02-19T03:17:57;99683.44;;;9.59;100.00
53908;BME280;40469;47.998;7.794;2023-02-19T03:20:45;99652.09;;;9.49;100.00
53908;BME280;40469;47.998;7.794;2023-02-19T03:23:11;99623.44;;;9.57;100.00
53908;BME280;40469;47.998;7.794;2023-02-19T03:25:37;99648.66;;;9.58;100.00
53908;BME280;40469;47.998;7.794;2023-02-19T03:28:22;99693.88;;;9.66;100.00
53908;BME280;40469;47.998;7.794;2023-02-19T03:31:10;99697.31;;;9.59;100.00
53908;BME280;40469;47.998;7.794;2023-02-19T03:33:37;99699.09;;;9.62;100.00
53908;BME280;40469;47.998;7.794;2023-02-19T03:36:04;99692.13;;;9.61;100.00
53908;BME280;40469;47.998;7.794;2023-02-19T03:38:48;99696.47;;;9.63;100.00
53908;BME280;40469;47.998;7.794;2023-02-19T03:41:20;99704.31;;;9.65;100.00
53908;BME280;40469;47.998;7.794;2023-02-19T03:43:58;99693.06;;;9.71;100.00
53908;BME280;40469;47.998;7.794;2023-02-19T03:46:31;99690.41;;;9.66;100.00
53908;BME280;40469;47.998;7.794;2023-02-19T03:49:04;99697.34;;;9.67;100.00
53908;BME280;40469;47.998;7.794;2023-02-19T03:51:38;99693.94;;;9.71;100.00
53908;BME280;40469;47.998;7.794;2023-02-19T03:54:21;99697.41;;;9.75;100.00
53908;BME280;40469;47.998;7.794;2023-02-19T03:56:51;99700.88;;;9.74;100.00
53908;BME280;40469;47.998;7.794;2023-02-19T03:59:30;99693.06;;;9.74;100.00
53908;BME280;40469;47.998;7.794;2023-02-19T04:01:59;99689.56;;;9.72;100.00
53908;BME280;40469;47.998;7.794;2023-02-19T04:04:26;99699.16;;;9.74;100.00
53908;BME280;40469;47.998;7.794;2023-02-19T04:06:55;99713.94;;;9.77;100.00
53908;BME280;40469;47.998;7.794;2023-02-19T04:09:22;99718.31;;;9.78;100.00
53908;BME280;40469;47.998;7.794;2023-02-19T04:11:49;99698.22;;;9.63;100.00
53908;BME280;40469;47.998;7.794;2023-02-19T04:14:28;99697.41;;;9.73;100.00
53908;BME280;40469;47.998;7.794;2023-02-19T04:16:58;99693.88;;;9.60;100.00
53908;BME280;40469;47.998;7.794;2023-02-19T04:19:24;99700.88;;;9.69;100.00
53908;BME280;40469;47.998;7.794;2023-02-19T04:21:50;99686.94;;;9.67;100.00
53908;BME280;40469;47.998;7.794;2023-02-19T04:24:25;99683.44;;;9.63;100.00
53908;BME280;40469;47.998;7.794;2023-02-19T04:26:52;99688.66;;;9.65;100.00
53908;BME280;40469;47.998;7.794;2023-02-19T04:29:17;99689.47;;;9.56;100.00
53908;BME280;40469;47.998;7.794;2023-02-19T04:31:43;99686.00;;;9.56;100.00
53908;BME280;40469;47.998;7.794;2023-02-19T04:34:11;99687.69;;;9.49;100.00
53908;BME280;40469;47.998;7.794;2023-02-19T04:36:37;99685.09;;;9.51;100.00
53908;BME280;40469;47.998;7.794;2023-02-19T04:39:02;99681.59;;;9.44;100.00
53908;BME280;40469;47.998;7.794;2023-02-19T04:41:27;99684.19;;;9.45;100.00
53908;BME280;40469;47.998;7.794;2023-02-19T04:43:52;99698.09;;;9.43;100.00
53908;BME280;40469;47.998;7.794;2023-02-19T04:46:18;99685.00;;;9.37;100.00
53908;BME280;40469;47.998;7.794;2023-02-19T04:48:43;99703.31;;;9.41;100.00
53908;BME280;40469;47.998;7.794;2023-02-19T04:51:08;99695.41;;;9.30;100.00
53908;BME280;40469;47.998;7.794;2023-02-19T04:53:34;99703.16;;;9.24;100.00
53908;BME280;40469;47.998;7.794;2023-02-19T04:56:06;99717.09;;;9.25;100.00
53908;BME280;40469;47.998;7.794;2023-02-19T04:58:32;99715.38;;;9.27;100.00
53908;BME280;40469;47.998;7.794;2023-02-19T05:00:57;99706.69;;;9.29;100.00
53908;BME280;40469;47.998;7.794;2023-02-19T05:03:22;99717.94;;;9.24;100.00
53908;BME280;40469;47.998;7.794;2023-02-19T05:05:47;99718.75;;;9.15;100.00
53908;BME280;40469;47.998;7.794;2023-02-19T05:08:12;99716.19;;;9.21;100.00
53908;BME280;40469;47.998;7.794;2023-02-19T05:10:38;99713.53;;;9.15;100.00
53908;BME280;40469;47.998;7.794;2023-02-19T05:13:03;99719.53;;;9.08;100.00
53908;BME280;40469;47.998;7.794;2023-02-19T05:15:28;99718.66;;;9.06;100.00
53908;BME280;40469;47.998;7.794;2023-02-19T05:17:53;99724.75;;;9.06;100.00
53908;BME280;40469;47.998;7.794;2023-02-19T05:20:19;99737.84;;;9.16;100.00
53908;BME280;40469;47.998;7.794;2023-02-19T05:22:46;99736.91;;;9.07;100.00
53908;BME280;40469;47.998;7.794;2023-02-19T05:25:11;99741.25;;;9.08;100.00
53908;BME280;40469;47.998;7.794;2023-02-19T05:27:36;99763.88;;;9.11;100.00
53908;BME280;40469;47.998;7.794;2023-02-19T05:30:02;99762.09;;;9.05;100.00
53908;BME280;40469;47.998;7.794;2023-02-19T05:32:27;99766.25;;;8.91;100.00
53908;BME280;40469;47.998;7.794;2023-02-19T05:34:52;99759.38;;;8.96;100.00
53908;BME280;40469;47.998;7.794;2023-02-19T05:37:17;99761.06;;;8.91;100.00
53908;BME280;40469;47.998;7.794;2023-02-19T05:39:43;99756.81;;;8.99;100.00
53908;BME280;40469;47.998;7.794;2023-02-19T05:42:08;99764.59;;;8.98;100.00
53908;BME280;40469;47.998;7.794;2023-02-19T05:44:33;99767.16;;;8.95;100.00
53908;BME280;40469;47.998;7.794;2023-02-19T05:46:58;99778.50;;;9.00;100.00
53908;BME280;40469;47.998;7.794;2023-02-19T05:49:24;99774.09;;;8.92;100.00
53908;BME280;40469;47.998;7.794;2023-02-19T05:51:49;99775.91;;;8.97;100.00
53908;BME280;40469;47.998;7.794;2023-02-19T05:54:14;99778.44;;;8.90;100.00
53908;BME280;40469;47.998;7.794;2023-02-19T05:56:40;99775.72;;;8.81;100.00
53908;BME280;40469;47.998;7.794;2023-02-19T05:59:16;99781.78;;;8.80;100.00
53908;BME280;40469;47.998;7.794;2023-02-19T06:01:42;99783.56;;;8.83;100.00
53908;BME280;40469;47.998;7.794;2023-02-19T06:04:07;99780.06;;;8.81;100.00
53908;BME280;40469;47.998;7.794;2023-02-19T06:06:33;99781.88;;;8.88;100.00
53908;BME280;40469;47.998;7.794;2023-02-19T06:08:58;99780.03;;;8.78;100.00
53908;BME280;40469;47.998;7.794;2023-02-19T06:11:23;99782.53;;;8.67;100.00
53908;BME280;40469;47.998;7.794;2023-02-19T06:13:49;99786.00;;;8.67;100.00
53908;BME280;40469;47.998;7.794;2023-02-19T06:16:14;99785.13;;;8.70;100.00
53908;BME280;40469;47.998;7.794;2023-02-19T06:18:42;99795.56;;;8.68;100.00
53908;BME280;40469;47.998;7.794;2023-02-19T06:21:08;99799.81;;;8.60;100.00
53908;BME280;40469;47.998;7.794;2023-02-19T06:23:34;99806.75;;;8.63;100.00
53908;BME280;40469;47.998;7.794;2023-02-19T06:28:30;99813.00;;;8.76;100.00
53908;BME280;40469;47.998;7.794;2023-02-19T06:30:57;99820.72;;;8.69;100.00
53908;BME280;40469;47.998;7.794;2023-02-19T06:33:22;99817.25;;;8.69;100.00
53908;BME280;40469;47.998;7.794;2023-02-19T06:35:47;99812.88;;;8.66;100.00
53908;BME280;40469;47.998;7.794;2023-02-19T06:38:12;99830.28;;;8.70;100.00
53908;BME280;40469;47.998;7.794;2023-02-19T06:40:38;99839.88;;;8.75;100.00
53908;BME280;40469;47.998;7.794;2023-02-19T06:43:03;99820.69;;;8.66;100.00
53908;BME280;40469;47.998;7.794;2023-02-19T06:45:28;99833.75;;;8.69;100.00
53908;BME280;40469;47.998;7.794;2023-02-19T06:50:20;99838.09;;;8.70;100.00
53908;BME280;40469;47.998;7.794;2023-02-19T06:52:46;99840.66;;;8.67;100.00
53908;BME280;40469;47.998;7.794;2023-02-19T06:55:11;99835.38;;;8.63;100.00
53908;BME280;40469;47.998;7.794;2023-02-19T06:57:36;99840.59;;;8.61;100.00
53908;BME280;40469;47.998;7.794;2023-02-19T07:00:01;99847.63;;;8.70;100.00
53908;BME280;40469;47.998;7.794;2023-02-19T07:02:28;99851.03;;;8.64;100.00
53908;BME280;40469;47.998;7.794;2023-02-19T07:04:53;99858.00;;;8.65;100.00
53908;BME280;40469;47.998;7.794;2023-02-19T07:07:18;99867.53;;;8.63;100.00
53908;BME280;40469;47.998;7.794;2023-02-19T07:09:43;99865.81;;;8.65;100.00
53908;BME280;40469;47.998;7.794;2023-02-19T07:12:09;99869.22;;;8.63;100.00
53908;BME280;40469;47.998;7.794;2023-02-19T07:14:34;99877.09;;;8.66;100.00
53908;BME280;40469;47.998;7.794;2023-02-19T07:16:59;99876.09;;;8.54;100.00
53908;BME280;40469;47.998;7.794;2023-02-19T07:19:24;99885.72;;;8.62;100.00
53908;BME280;40469;47.998;7.794;2023-02-19T07:21:50;99885.63;;;8.56;100.00
53908;BME280;40469;47.998;7.794;2023-02-19T07:24:15;99887.41;;;8.58;100.00
53908;BME280;40469;47.998;7.794;2023-02-19T07:26:40;99890.84;;;8.57;100.00
53908;BME280;40469;47.998;7.794;2023-02-19T07:29:05;99893.41;;;8.52;100.00
53908;BME280;40469;47.998;7.794;2023-02-19T07:31:31;99889.84;;;8.46;100.00
53908;BME280;40469;47.998;7.794;2023-02-19T07:33:57;99900.28;;;8.47;100.00
53908;BME280;40469;47.998;7.794;2023-02-19T07:36:22;99904.72;;;8.54;100.00
53908;BME280;40469;47.998;7.794;2023-02-19T07:38:59;99904.63;;;8.48;100.00
53908;BME280;40469;47.998;7.794;2023-02-19T07:41:24;99912.53;;;8.58;100.00
53908;BME280;40469;47.998;7.794;2023-02-19T07:43:50;99926.44;;;8.57;100.00
53908;BME280;40469;47.998;7.794;2023-02-19T07:46:15;99927.16;;;8.46;100.00
53908;BME280;40469;47.998;7.794;2023-02-19T07:48:41;99939.41;;;8.53;100.00
53908;BME280;40469;47.998;7.794;2023-02-19T07:51:08;99944.72;;;8.63;100.00
53908;BME280;40469;47.998;7.794;2023-02-19T07:53:34;99952.69;;;8.72;100.00
53908;BME280;40469;47.998;7.794;2023-02-19T07:56:00;99950.91;;;8.69;100.00
53908;BME280;40469;47.998;7.794;2023-02-19T07:58:26;99950.03;;;8.69;100.00
53908;BME280;40469;47.998;7.794;2023-02-19T08:00:51;99963.16;;;8.78;100.00
53908;BME280;40469;47.998;7.794;2023-02-19T08:03:17;99960.50;;;8.72;100.00
53908;BME280;40469;47.998;7.794;2023-02-19T08:05:42;99965.69;;;8.70;100.00
53908;BME280;40469;47.998;7.794;2023-02-19T08:08:08;99968.34;;;8.77;100.00
53908;BME280;40469;47.998;7.794;2023-02-19T08:10:34;99972.75;;;8.82;100.00
53908;BME280;40469;47.998;7.794;2023-02-19T08:13:18;99967.47;;;8.76;100.00
53908;BME280;40469;47.998;7.794;2023-02-19T08:15:44;99969.22;;;8.76;100.00
53908;BME280;40469;47.998;7.794;2023-02-19T08:18:09;99974.34;;;8.71;100.00
53908;BME280;40469;47.998;7.794;2023-02-19T08:20:35;99972.75;;;8.82;100.00
53908;BME280;40469;47.998;7.794;2023-02-19T08:23:00;99979.84;;;8.89;100.00
53908;BME280;40469;47.998;7.794;2023-02-19T08:25:26;99983.41;;;8.99;100.00
53908;BME280;40469;47.998;7.794;2023-02-19T08:27:51;99978.13;;;8.91;100.00
53908;BME280;40469;47.998;7.794;2023-02-19T08:30:16;99966.16;;;9.07;100.00
53908;BME280;40469;47.998;7.794;2023-02-19T08:32:41;99967.13;;;9.17;100.00
53908;BME280;40469;47.998;7.794;2023-02-19T08:35:07;99967.25;;;9.28;100.00
53908;BME280;40469;47.998;7.794;2023-02-19T08:37:32;99968.63;;;9.73;100.00
53908;BME280;40469;47.998;7.794;2023-02-19T08:39:57;99969.16;;;9.41;100.00
53908;BME280;40469;47.998;7.794;2023-02-19T08:42:22;99965.13;;;9.71;100.00
53908;BME280;40469;47.998;7.794;2023-02-19T08:44:48;99970.50;;;9.90;100.00
53908;BME280;40469;47.998;7.794;2023-02-19T08:47:13;99975.81;;;10.00;100.00
53908;BME280;40469;47.998;7.794;2023-02-19T08:49:39;99980.81;;;9.74;100.00
53908;BME280;40469;47.998;7.794;2023-02-19T08:52:04;99987.72;;;9.71;100.00
53908;BME280;40469;47.998;7.794;2023-02-19T08:54:29;99985.69;;;9.45;100.00
53908;BME280;40469;47.998;7.794;2023-02-19T08:56:54;99981.56;;;9.62;100.00
53908;BME280;40469;47.998;7.794;2023-02-19T08:59:19;99978.00;;;9.57;100.00
53908;BME280;40469;47.998;7.794;2023-02-19T09:01:45;99968.69;;;9.81;100.00
53908;BME280;40469;47.998;7.794;2023-02-19T09:04:10;99978.19;;;9.74;100.00
53908;BME280;40469;47.998;7.794;2023-02-19T09:06:36;99980.34;;;10.23;100.00
53908;BME280;40469;47.998;7.794;2023-02-19T09:09:01;99979.72;;;10.50;100.00
53908;BME280;40469;47.998;7.794;2023-02-19T09:11:27;99985.66;;;10.32;100.00
53908;BME280;40469;47.998;7.794;2023-02-19T09:13:54;99988.63;;;10.85;100.00
53908;BME280;40469;47.998;7.794;2023-02-19T09:16:19;99977.41;;;10.98;100.00
53908;BME280;40469;47.998;7.794;2023-02-19T09:18:44;99990.13;;;10.44;100.00
53908;BME280;40469;47.998;7.794;2023-02-19T09:21:10;99997.50;;;9.93;100.00
53908;BME280;40469;47.998;7.794;2023-02-19T09:23:35;99988.97;;;10.13;100.00
53908;BME280;40469;47.998;7.794;2023-02-19T09:26:01;99990.47;;;10.98;100.00
53908;BME280;40469;47.998;7.794;2023-02-19T09:28:30;99982.78;;;11.35;100.00
53908;BME280;40469;47.998;7.794;2023-02-19T09:30:56;99990.78;;;12.00;100.00
53908;BME280;40469;47.998;7.794;2023-02-19T09:33:21;99988.19;;;12.29;100.00
53908;BME280;40469;47.998;7.794;2023-02-19T09:35:46;99979.03;;;10.80;100.00
53908;BME280;40469;47.998;7.794;2023-02-19T09:38:11;99977.06;;;10.44;100.00
53908;BME280;40469;47.998;7.794;2023-02-19T09:40:37;99984.94;;;10.47;100.00
53908;BME280;40469;47.998;7.794;2023-02-19T09:43:10;99982.16;;;10.27;100.00
53908;BME280;40469;47.998;7.794;2023-02-19T09:45:36;99973.63;;;10.50;100.00
53908;BME280;40469;47.998;7.794;2023-02-19T09:48:02;99965.78;;;10.50;100.00
53908;BME280;40469;47.998;7.794;2023-02-19T09:50:34;99971.84;;;10.39;100.00
53908;BME280;40469;47.998;7.794;2023-02-19T09:53:02;99970.81;;;10.28;100.00
53908;BME280;40469;47.998;7.794;2023-02-19T09:55:33;99981.16;;;10.16;100.00
53908;BME280;40469;47.998;7.794;2023-02-19T09:58:00;99983.84;;;10.27;100.00
53908;BME280;40469;47.998;7.794;2023-02-19T10:00:28;99978.00;;;10.54;100.00
53908;BME280;40469;47.998;7.794;2023-02-19T10:03:05;99968.84;;;11.45;100.00
53908;BME280;40469;47.998;7.794;2023-02-19T10:05:33;99980.34;;;12.09;100.00
53908;BME280;40469;47.998;7.794;2023-02-19T10:07:59;99976.84;;;11.93;100.00
53908;BME280;40469;47.998;7.794;2023-02-19T10:10:29;99981.19;;;11.92;100.00
53908;BME280;40469;47.998;7.794;2023-02-19T10:12:58;99987.22;;;11.73;100.00
53908;BME280;40469;47.998;7.794;2023-02-19T10:15:31;99982.06;;;12.04;100.00
53908;BME280;40469;47.998;7.794;2023-02-19T10:17:57;99988.16;;;12.40;100.00
53908;BME280;40469;47.998;7.794;2023-02-19T10:20:23;99973.16;;;13.09;100.00
53908;BME280;40469;47.998;7.794;2023-02-19T10:22:54;99974.97;;;12.90;100.00
53908;BME280;40469;47.998;7.794;2023-02-19T10:25:21;99967.84;;;13.33;100.00
53908;BME280;40469;47.998;7.794;2023-02-19T10:27:47;99984.47;;;13.33;100.00
53908;BME280;40469;47.998;7.794;2023-02-19T10:30:22;99988.88;;;13.11;100.00
53908;BME280;40469;47.998;7.794;2023-02-19T10:38:18;99989.81;;;11.71;100.00
53908;BME280;40469;47.998;7.794;2023-02-19T10:40:44;99997.63;;;11.47;100.00
53908;BME280;40469;47.998;7.794;2023-02-19T10:43:18;99993.97;;;11.06;100.00
53908;BME280;40469;47.998;7.794;2023-02-19T10:45:46;99998.41;;;11.26;100.00
53908;BME280;40469;47.998;7.794;2023-02-19T10:51:07;100011.44;;;11.10;100.00
53908;BME280;40469;47.998;7.794;2023-02-19T10:53:38;100022.75;;;11.09;100.00
53908;BME280;40469;47.998;7.794;2023-02-19T10:56:08;100017.41;;;10.88;100.00
53908;BME280;40469;47.998;7.794;2023-02-19T10:58:33;100020.03;;;10.91;100.00
53908;BME280;40469;47.998;7.794;2023-02-19T11:01:19;100012.19;;;10.89;100.00
53908;BME280;40469;47.998;7.794;2023-02-19T11:04:31;100020.81;;;10.76;100.00
53908;BME280;40469;47.998;7.794;2023-02-19T11:06:30;100023.38;;;10.73;100.00
53908;BME280;40469;47.998;7.794;2023-02-19T11:08:56;100024.34;;;10.82;100.00
53908;BME280;40469;47.998;7.794;2023-02-19T11:11:27;100018.28;;;10.91;100.00
53908;BME280;40469;47.998;7.794;2023-02-19T11:13:56;100022.72;;;11.08;100.00
53908;BME280;40469;47.998;7.794;2023-02-19T11:16:35;100016.72;;;11.24;100.00
53908;BME280;40469;47.998;7.794;2023-02-19T11:19:01;100019.41;;;11.50;100.00
53908;BME280;40469;47.998;7.794;2023-02-19T11:21:28;100018.47;;;11.28;100.00
53908;BME280;40469;47.998;7.794;2023-02-19T11:23:57;100021.81;;;11.03;100.00
53908;BME280;40469;47.998;7.794;2023-02-19T11:26:23;100014.88;;;11.03;100.00
53908;BME280;40469;47.998;7.794;2023-02-19T11:28:57;100024.44;;;11.03;100.00
53908;BME280;40469;47.998;7.794;2023-02-19T11:34:01;100009.78;;;11.35;100.00
53908;BME280;40469;47.998;7.794;2023-02-19T11:36:27;100007.22;;;11.49;100.00
53908;BME280;40469;47.998;7.794;2023-02-19T11:38:53;100007.22;;;11.46;100.00
53908;BME280;40469;47.998;7.794;2023-02-19T11:51:47;99987.22;;;11.68;100.00
53908;BME280;40469;47.998;7.794;2023-02-19T11:57:13;99981.13;;;11.71;100.00
53908;BME280;40469;47.998;7.794;2023-02-19T11:59:47;99981.09;;;11.68;100.00
53908;BME280;40469;47.998;7.794;2023-02-19T12:04:59;99978.53;;;11.85;100.00
53908;BME280;40469;47.998;7.794;2023-02-19T12:17:51;99976.75;;;11.71;100.00
53908;BME280;40469;47.998;7.794;2023-02-19T12:20:33;99984.63;;;11.76;100.00
53908;BME280;40469;47.998;7.794;2023-02-19T12:25:51;99986.31;;;11.55;100.00
53908;BME280;40469;47.998;7.794;2023-02-19T12:29:19;99979.34;;;11.54;100.00
53908;BME280;40469;47.998;7.794;2023-02-19T12:34:05;99988.91;;;11.46;100.00
53908;BME280;40469;47.998;7.794;2023-02-19T12:44:04;99997.66;;;11.54;100.00
53908;BME280;40469;47.998;7.794;2023-02-19T12:46:40;99988.88;;;11.37;100.00
53908;BME280;40469;47.998;7.794;2023-02-19T12:49:14;99992.41;;;11.53;100.00
53908;BME280;40469;47.998;7.794;2023-02-19T12:51:44;99998.56;;;11.67;100.00
53908;BME280;40469;47.998;7.794;2023-02-19T12:54:33;99989.88;;;11.79;100.00
53908;BME280;40469;47.998;7.794;2023-02-19T12:57:44;99977.63;;;11.70;100.00
53908;BME280;40469;47.998;7.794;2023-02-19T12:59:49;99983.81;;;12.05;100.00
53908;BME280;40469;47.998;7.794;2023-02-19T13:02:25;99977.69;;;12.29;100.00
53908;BME280;40469;47.998;7.794;2023-02-19T13:04:57;99967.22;;;12.17;100.00
53908;BME280;40469;47.998;7.794;2023-02-19T13:07:39;99957.63;;;12.14;100.00
53908;BME280;40469;47.998;7.794;2023-02-19T13:10:23;99967.22;;;12.13;100.00
53908;BME280;40469;47.998;7.794;2023-02-19T13:12:50;99968.09;;;12.16;100.00
53908;BME280;40469;47.998;7.794;2023-02-19T13:15:20;99956.75;;;12.01;100.00
53908;BME280;40469;47.998;7.794;2023-02-19T13:17:48;99956.75;;;12.00;100.00
53908;BME280;40469;47.998;7.794;2023-02-19T13:26:00;99950.59;;;11.82;100.00
53908;BME280;40469;47.998;7.794;2023-02-19T13:36:57;99969.78;;;11.70;100.00
53908;BME280;40469;47.998;7.794;2023-02-19T13:39:23;99970.69;;;11.75;100.00
53908;BME280;40469;47.998;7.794;2023-02-19T13:41:49;99978.50;;;11.71;100.00
53908;BME280;40469;47.998;7.794;2023-02-19T13:44:19;99981.06;;;11.54;100.00
53908;BME280;40469;47.998;7.794;2023-02-19T13:46:45;99969.75;;;11.56;100.00
53908;BME280;40469;47.998;7.794;2023-02-19T13:51:52;99960.13;;;11.40;100.00
53908;BME280;40469;47.998;7.794;2023-02-19T13:54:31;99962.78;;;11.52;100.00
53908;BME280;40469;47.998;7.794;2023-02-19T13:59:50;99968.88;;;11.54;100.00
53908;BME280;40469;47.998;7.794;2023-02-19T14:04:52;99981.03;;;11.37;100.00
53908;BME280;40469;47.998;7.794;2023-02-19T14:09:43;99975.75;;;11.23;100.00
53908;BME280;40469;47.998;7.794;2023-02-19T14:14:47;99967.91;;;11.15;100.00
53908;BME280;40469;47.998;7.794;2023-02-19T14:24:51;99960.06;;;11.25;100.00
53908;BME280;40469;47.998;7.794;2023-02-19T14:27:17;99966.16;;;11.22;100.00
53908;BME280;40469;47.998;7.794;2023-02-19T14:29:42;99969.66;;;11.23;100.00
53908;BME280;40469;47.998;7.794;2023-02-19T14:32:10;99967.91;;;11.22;100.00
53908;BME280;40469;47.998;7.794;2023-02-19T14:34:40;99967.03;;;11.21;100.00
53908;BME280;40469;47.998;7.794;2023-02-19T14:37:08;99973.94;;;11.11;100.00
53908;BME280;40469;47.998;7.794;2023-02-19T14:39:40;99966.97;;;11.13;100.00
53908;BME280;40469;47.998;7.794;2023-02-19T14:42:14;99970.50;;;11.18;100.00
53908;BME280;40469;47.998;7.794;2023-02-19T14:44:50;99975.75;;;11.22;100.00
53908;BME280;40469;47.998;7.794;2023-02-19T14:47:17;99982.66;;;11.13;100.00
53908;BME280;40469;47.998;7.794;2023-02-19T14:49:53;99983.53;;;11.09;100.00